Time;durP1;ratioP1;P1;durP2;ratioP2;P2;SDS_P1;SDS_P2;PMS_P1;PMS_P2;Temp;Humidity;BMP_temperature;BMP_pressure;BME280_temperature;BME280_humidity;BME280_pressure;Samples;Min_cycle;Max_cycle;Signal;HPM_P1;HPM_P2
2021/08/10 00:01:33;;;;;;;10.73;6.10;;;;;;;14.54;76.59;99891.12;1786411;79;21008;-68
2021/08/10 00:03:59;;;;;;;9.10;6.30;;;;;;;14.49;76.66;99891.83;1787366;79;21614;-68
2021/08/10 00:06:26;;;;;;;26.50;10.78;;;;;;;14.47;76.73;99885.81;1783372;79;21009;-68
2021/08/10 00:08:53;;;;;;;22.40;11.27;;;;;;;14.42;76.78;99882.62;1781732;79;21650;-68
2021/08/10 00:11:19;;;;;;;23.90;10.90;;;;;;;14.38;76.83;99882.44;1785018;79;20988;-68
2021/08/10 00:13:46;;;;;;;24.15;11.15;;;;;;;14.35;76.92;99880.00;1787714;79;20974;-68
2021/08/10 00:16:13;;;;;;;25.63;11.67;;;;;;;14.33;76.94;99881.39;1788596;79;21147;-68
2021/08/10 00:18:39;;;;;;;24.47;10.60;;;;;;;14.28;76.95;99883.92;1785434;79;20998;-68
2021/08/10 00:21:06;;;;;;;21.43;10.57;;;;;;;14.25;77.03;99873.61;1785343;79;20934;-68
2021/08/10 00:23:32;;;;;;;19.50;10.00;;;;;;;14.23;77.06;99878.97;1789172;79;21008;-68
2021/08/10 00:25:59;;;;;;;24.97;10.57;;;;;;;14.07;77.02;99875.56;1785108;79;21090;-68
2021/08/10 00:28:26;;;;;;;18.85;8.70;;;;;;;14.07;77.02;99875.56;1771492;79;21482;-68
2021/08/10 00:30:53;;;;;;;10.80;7.35;;;;;;;13.99;77.12;99867.29;1787300;79;20951;-68
2021/08/10 00:33:20;;;;;;;15.27;8.10;;;;;;;13.95;77.23;99872.33;1781101;79;20989;-68
2021/08/10 00:35:47;;;;;;;16.50;8.08;;;;;;;13.91;77.29;99867.73;1747638;80;20978;-68
2021/08/10 00:38:13;;;;;;;25.82;12.15;;;;;;;13.82;77.17;99866.50;1732249;79;21031;-68
2021/08/10 00:40:41;;;;;;;30.75;14.38;;;;;;;13.75;77.34;99866.93;1778581;79;21111;-68
2021/08/10 00:43:27;;;;;;;;;;;;;;;13.72;77.48;99864.48;1782201;79;20970;-68
2021/08/10 00:45:54;;;;;;;15.23;7.67;;;;;;;13.68;77.58;99865.62;1775260;79;20129;-68
2021/08/10 00:48:21;;;;;;;11.80;7.12;;;;;;;13.63;77.57;99864.08;1737655;81;20933;-68
2021/08/10 00:50:48;;;;;;;14.30;7.03;;;;;;;13.61;77.64;99867.28;1786191;79;21017;-68
2021/08/10 00:53:15;;;;;;;16.30;7.53;;;;;;;13.60;77.66;99871.30;1769224;79;21002;-68
2021/08/10 00:55:42;;;;;;;15.40;6.70;;;;;;;13.58;77.73;99872.71;1768581;79;21026;-69
2021/08/10 00:58:12;;;;;;;15.83;7.97;;;;;;;13.56;77.83;99860.14;1752576;81;21253;-69
2021/08/10 01:00:38;;;;;;;13.60;7.50;;;;;;;13.56;77.89;99860.14;1765345;81;21057;-68
2021/08/10 01:03:05;;;;;;;9.87;6.23;;;;;;;13.53;77.75;99861.63;1786682;79;21022;-68
2021/08/10 01:05:32;;;;;;;11.50;5.97;;;;;;;13.52;77.82;99859.92;1747723;81;21591;-68
2021/08/10 01:08:10;;;;;;;14.68;6.53;;;;;;;13.48;77.95;99857.11;1754167;81;20942;-69
2021/08/10 01:10:44;;;;;;;9.88;6.03;;;;;;;13.41;77.92;99854.00;1749196;81;21010;-68
2021/08/10 01:13:25;;;;;;;11.03;6.37;;;;;;;13.44;77.93;99863.44;1780227;79;20942;-69
2021/08/10 01:16:17;;;;;;;7.17;5.05;;;;;;;13.39;77.91;99856.33;1774752;79;21013;-69
2021/08/10 01:18:55;;;;;;;8.15;4.95;;;;;;;13.27;77.59;99863.55;1775977;79;21619;-68
2021/08/10 01:21:35;;;;;;;7.15;4.87;;;;;;;13.17;77.95;99865.36;1776939;79;21118;-69
2021/08/10 01:24:10;;;;;;;7.95;4.90;;;;;;;13.15;78.10;99865.06;1750849;81;21021;-69
2021/08/10 01:27:09;;;;;;;8.33;4.20;;;;;;;13.07;78.00;99862.86;1779643;79;21002;-68
2021/08/10 01:29:50;;;;;;;14.40;5.20;;;;;;;12.98;78.04;99850.27;1719450;82;20911;-67
2021/08/10 01:32:16;;;;;;;7.25;4.92;;;;;;;13.03;78.30;99857.89;1724459;82;21709;-69
2021/08/10 01:34:47;;;;;;;7.97;5.20;;;;;;;13.05;78.41;99859.50;1724881;82;21199;-68
2021/08/10 01:37:24;;;;;;;9.30;4.95;;;;;;;13.09;78.46;99853.61;1726216;82;21490;-68
2021/08/10 01:39:58;;;;;;;6.65;5.00;;;;;;;13.03;78.48;99844.31;1724125;81;21650;-69
2021/08/10 01:42:26;;;;;;;7.10;5.03;;;;;;;13.07;78.40;99849.75;1719429;82;21026;-69
2021/08/10 01:44:56;;;;;;;6.67;4.50;;;;;;;13.07;78.40;99849.75;1674454;83;21111;-69
2021/08/10 01:47:24;;;;;;;6.65;4.35;;;;;;;13.05;78.49;99849.02;1701569;83;20989;-69
2021/08/10 01:49:52;;;;;;;7.22;4.40;;;;;;;12.98;78.47;99842.41;1696820;82;20994;-69
2021/08/10 01:52:22;;;;;;;8.70;4.90;;;;;;;12.99;78.50;99849.33;1724736;82;21988;-69
2021/08/10 01:54:50;;;;;;;5.65;3.85;;;;;;;12.96;78.60;99849.50;1692804;83;20986;-69
2021/08/10 01:57:20;;;;;;;6.72;3.72;;;;;;;12.96;78.60;99849.50;1715995;82;21499;-69
2021/08/10 01:59:50;;;;;;;5.78;3.95;;;;;;;12.82;78.65;99838.93;1698771;83;21567;-69
2021/08/10 02:02:17;;;;;;;5.78;4.25;;;;;;;12.88;78.68;99846.45;1724657;82;20950;-69
2021/08/10 02:04:46;;;;;;;4.87;3.60;;;;;;;12.83;78.65;99851.13;1723546;82;20903;-69
2021/08/10 02:07:13;;;;;;;4.70;4.20;;;;;;;12.80;78.70;99859.13;1719369;82;21093;-69
2021/08/10 02:09:40;;;;;;;6.30;3.70;;;;;;;12.79;78.85;99854.82;1722243;82;22323;-69
2021/08/10 02:12:09;;;;;;;6.30;3.90;;;;;;;12.83;78.98;99865.06;1726761;82;21568;-69
2021/08/10 02:14:37;;;;;;;5.30;4.17;;;;;;;12.88;79.04;99859.55;1724796;82;21021;-69
2021/08/10 02:17:08;;;;;;;7.15;3.75;;;;;;;12.95;79.10;99862.23;1722355;82;21015;-69
2021/08/10 02:19:35;;;;;;;6.55;3.60;;;;;;;13.03;79.16;99869.21;1724939;82;21535;-69
2021/08/10 02:22:12;;;;;;;4.35;3.47;;;;;;;13.11;79.33;99894.55;1721828;82;21233;-68
2021/08/10 02:24:58;;;;;;;3.42;2.72;;;;;;;13.12;79.08;99902.77;1723903;82;20969;-69
2021/08/10 02:27:33;;;;;;;4.20;2.77;;;;;;;13.14;79.15;99895.69;1726381;82;20989;-68
2021/08/10 02:30:05;;;;;;;4.60;2.70;;;;;;;13.22;79.20;99895.27;1723155;82;21056;-69
2021/08/10 02:32:33;;;;;;;3.52;2.40;;;;;;;13.14;79.14;99878.64;1725378;82;21002;-69
2021/08/10 02:35:01;;;;;;;3.60;2.52;;;;;;;13.33;79.18;99889.43;1720648;82;21541;-69
2021/08/10 02:37:32;;;;;;;3.58;2.50;;;;;;;13.39;79.17;99895.67;1721832;82;20907;-69
2021/08/10 02:40:03;;;;;;;3.55;2.45;;;;;;;13.46;78.99;99902.24;1720698;82;21033;-69
2021/08/10 02:42:33;;;;;;;3.65;2.40;;;;;;;13.45;79.08;99886.61;1715208;81;21036;-69
2021/08/10 02:45:01;;;;;;;4.40;2.50;;;;;;;13.54;79.10;99896.10;1718992;82;20969;-69
2021/08/10 02:47:29;;;;;;;2.90;1.98;;;;;;;13.58;79.07;99889.77;1712694;81;21242;-69
2021/08/10 02:49:55;;;;;;;4.80;2.12;;;;;;;13.62;79.05;99883.39;1726336;81;20989;-69
2021/08/10 02:52:22;;;;;;;3.85;2.27;;;;;;;13.62;78.97;99885.18;1697355;83;21009;-69
2021/08/10 02:54:49;;;;;;;3.37;2.22;;;;;;;13.63;79.02;99883.77;1728779;82;21500;-69
2021/08/10 02:57:26;;;;;;;1.92;1.77;;;;;;;13.65;79.08;99885.84;1718170;82;27116;-69
2021/08/10 03:00:06;;;;;;;3.05;1.98;;;;;;;13.69;78.99;99885.66;1726738;82;21494;-68
2021/08/10 03:02:50;;;;;;;2.77;2.42;;;;;;;13.74;78.97;99886.25;1695861;83;21059;-68
2021/08/10 03:05:21;;;;;;;3.98;2.42;;;;;;;13.75;78.96;99885.30;1699327;83;20975;-68
2021/08/10 03:08:00;;;;;;;4.72;3.05;;;;;;;13.81;79.11;99882.34;1703805;83;21002;-68
2021/08/10 03:10:32;;;;;;;3.20;2.52;;;;;;;13.85;79.13;99886.47;1705087;83;20959;-68
2021/08/10 03:13:03;;;;;;;7.87;3.22;;;;;;;13.87;78.95;99880.67;1683908;83;21859;-68
2021/08/10 03:15:32;;;;;;;3.65;2.40;;;;;;;13.85;78.89;99878.59;1720602;81;21018;-69
2021/08/10 03:18:04;;;;;;;4.22;2.55;;;;;;;13.84;78.93;99871.67;1732936;81;21554;-69
2021/08/10 03:20:34;;;;;;;4.78;2.60;;;;;;;13.83;78.88;99875.20;1702130;82;20958;-68
2021/08/10 03:23:03;;;;;;;4.80;2.50;;;;;;;13.79;78.95;99871.09;1691837;82;20997;-68
2021/08/10 03:25:31;;;;;;;5.15;2.58;;;;;;;13.81;79.01;99866.60;1716815;83;21122;-68
2021/08/10 03:27:59;;;;;;;4.80;2.85;;;;;;;13.84;79.00;99870.36;1721841;81;20982;-68
2021/08/10 03:30:26;;;;;;;3.65;2.50;;;;;;;13.81;78.95;99871.84;1720976;82;21029;-68
2021/08/10 03:32:55;;;;;;;6.00;2.58;;;;;;;13.82;79.03;99870.91;1708028;83;21568;-69
2021/08/10 03:35:22;;;;;;;5.80;2.83;;;;;;;13.73;78.99;99863.58;1692883;84;21120;-68
2021/08/10 03:37:50;;;;;;;3.30;2.58;;;;;;;13.79;79.05;99871.09;1713403;83;21469;-68
2021/08/10 03:40:18;;;;;;;14.38;2.90;;;;;;;13.78;79.02;99870.25;1715991;82;21002;-68
2021/08/10 03:42:45;;;;;;;2.92;2.37;;;;;;;13.82;79.11;99866.97;1721870;82;21040;-68
2021/08/10 03:45:11;;;;;;;;;;;;;;;13.87;79.03;99868.86;1754582;81;20982;-68
2021/08/10 03:47:39;;;;;;;6.10;2.67;;;;;;;13.87;79.07;99865.77;1733406;81;20418;-68
2021/08/10 03:50:07;;;;;;;3.35;2.50;;;;;;;13.89;79.07;99869.59;1752696;81;21492;-68
2021/08/10 03:52:34;;;;;;;8.15;2.20;;;;;;;13.91;79.06;99857.23;1753351;81;20922;-68
2021/08/10 03:55:03;;;;;;;4.72;2.50;;;;;;;13.92;79.06;99857.63;1756337;81;27588;-68
2021/08/10 03:57:32;;;;;;;5.78;2.98;;;;;;;13.95;79.11;99855.27;1750131;81;21006;-68
2021/08/10 04:00:00;;;;;;;9.55;2.80;;;;;;;13.98;79.20;99866.45;1746426;81;21673;-68
2021/08/10 04:02:28;;;;;;;4.37;2.47;;;;;;;14.03;79.29;99867.03;1752792;81;22396;-68
2021/08/10 04:04:56;;;;;;;8.18;2.50;;;;;;;14.06;79.22;99872.09;1722457;82;21028;-68
2021/08/10 04:07:24;;;;;;;5.92;2.90;;;;;;;14.15;79.38;99867.23;1716145;81;21108;-68
2021/08/10 04:09:51;;;;;;;5.20;2.52;;;;;;;14.20;79.37;99871.72;1719019;82;21009;-69
2021/08/10 04:12:21;;;;;;;5.97;2.40;;;;;;;14.24;79.25;99873.23;1717188;81;21232;-69
2021/08/10 04:14:48;;;;;;;10.38;3.10;;;;;;;14.24;79.14;99864.89;1698631;83;21520;-69
2021/08/10 04:17:24;;;;;;;6.83;2.15;;;;;;;14.21;79.15;99866.39;1710506;82;24412;-68
2021/08/10 04:19:56;;;;;;;4.90;2.47;;;;;;;14.22;79.21;99860.66;1714797;82;20963;-68
2021/08/10 04:22:23;;;;;;;4.87;2.40;;;;;;;14.19;79.05;99863.47;1706885;83;20872;-68
2021/08/10 04:24:50;;;;;;;4.10;2.10;;;;;;;14.17;79.07;99864.03;1745643;81;20976;-69
2021/08/10 04:27:17;;;;;;;5.33;2.75;;;;;;;14.14;79.09;99847.14;1745167;81;21554;-68
2021/08/10 04:29:44;;;;;;;4.85;2.35;;;;;;;14.13;79.19;99840.22;1740413;81;20957;-68
2021/08/10 04:32:11;;;;;;;;;;;;;;;14.19;79.38;99843.30;1739143;81;21044;-68
2021/08/10 04:34:40;;;;;;;4.95;2.25;;;;;;;14.28;79.56;99848.03;1732888;81;20108;-68
2021/08/10 04:37:07;;;;;;;5.45;2.37;;;;;;;14.35;79.41;99849.80;1703218;83;20966;-68
2021/08/10 04:39:34;;;;;;;3.70;2.15;;;;;;;14.37;79.27;99846.62;1701470;82;21979;-68
2021/08/10 04:42:04;;;;;;;5.28;2.12;;;;;;;14.32;79.20;99848.67;1699685;82;21628;-68
2021/08/10 04:44:36;;;;;;;4.58;2.52;;;;;;;14.22;79.12;99847.53;1701076;82;21005;-68
2021/08/10 04:47:02;;;;;;;5.15;2.45;;;;;;;14.19;79.31;99850.34;1701509;82;21038;-69
2021/08/10 04:49:29;;;;;;;4.10;2.47;;;;;;;14.29;79.57;99851.02;1698984;83;21769;-69
2021/08/10 04:51:55;;;;;;;4.60;2.73;;;;;;;14.45;79.55;99861.89;1679747;84;21089;-69
2021/08/10 04:54:22;;;;;;;6.53;2.90;;;;;;;14.60;79.74;99866.73;1704723;83;21020;-68
2021/08/10 04:56:49;;;;;;;4.87;2.63;;;;;;;14.68;79.57;99868.42;1698060;82;21214;-68
2021/08/10 04:59:15;;;;;;;10.13;2.50;;;;;;;14.76;79.44;99870.94;1697778;83;21028;-68
2021/08/10 05:01:44;;;;;;;2.45;1.77;;;;;;;14.76;79.20;99871.42;1660439;83;21524;-69
2021/08/10 05:04:11;;;;;;;3.58;1.90;;;;;;;14.70;79.11;99857.31;1696793;83;22172;-69
2021/08/10 05:06:38;;;;;;;4.30;2.20;;;;;;;14.64;79.20;99857.70;1659694;84;20994;-69
2021/08/10 05:09:06;;;;;;;7.50;1.90;;;;;;;14.65;79.25;99850.22;1676190;84;20934;-69
2021/08/10 05:11:33;;;;;;;5.45;2.33;;;;;;;14.65;79.27;99861.56;1690131;84;20954;-70
2021/08/10 05:14:00;;;;;;;6.15;2.27;;;;;;;14.68;79.44;99864.47;1689015;83;20973;-69
2021/08/10 05:16:26;;;;;;;4.87;2.15;;;;;;;14.67;79.31;99861.45;1698079;82;21359;-70
2021/08/10 05:18:53;;;;;;;5.08;2.17;;;;;;;14.73;79.71;99861.06;1735163;81;21006;-69
2021/08/10 05:21:20;;;;;;;8.18;2.00;;;;;;;14.92;79.84;99852.40;1735414;81;21038;-70
2021/08/10 05:23:47;;;;;;;5.30;2.60;;;;;;;15.05;79.58;99851.64;1738070;81;20989;-70
2021/08/10 05:26:13;;;;;;;3.83;2.27;;;;;;;15.18;79.72;99846.81;1737915;81;20903;-69
2021/08/10 05:28:40;;;;;;;6.87;2.47;;;;;;;15.40;79.80;99850.22;1732681;80;22042;-69
2021/08/10 05:31:07;;;;;;;6.27;2.87;;;;;;;15.58;79.64;99853.90;1746260;80;20901;-70
2021/08/10 05:33:34;;;;;;;4.58;2.17;;;;;;;15.87;79.53;99855.45;1751056;80;20949;-69
2021/08/10 05:36:01;;;;;;;;;;;;;;;15.87;79.53;99855.45;1750403;80;21043;-71
2021/08/10 05:38:27;;;;;;;4.97;2.30;;;;;;;15.95;79.25;99854.11;1756058;80;20097;-71
2021/08/10 05:40:54;;;;;;;3.70;1.83;;;;;;;16.51;80.09;99850.69;1752103;80;21516;-71
2021/08/10 05:43:20;;;;;;;13.72;1.95;;;;;;;17.43;80.13;99845.44;1749499;80;20973;-72
2021/08/10 05:45:47;;;;;;;2.92;1.72;;;;;;;18.60;79.67;99839.20;1749646;80;21064;-72
2021/08/10 05:48:14;;;;;;;11.73;2.12;;;;;;;19.67;78.83;99837.20;1754935;80;20957;-72
2021/08/10 05:50:40;;;;;;;27.75;3.22;;;;;;;20.52;77.86;99832.18;1754840;80;21192;-72
2021/08/10 05:53:07;;;;;;;10.70;2.95;;;;;;;21.31;77.19;99834.08;1749890;80;21956;-72
2021/08/10 05:55:34;;;;;;;14.53;3.02;;;;;;;22.01;76.79;99830.28;1747587;80;21267;-72
2021/08/10 05:58:00;;;;;;;4.62;2.15;;;;;;;22.70;76.02;99830.92;1755252;80;23027;-72
2021/08/10 06:00:27;;;;;;;4.70;2.00;;;;;;;23.22;75.46;99826.72;1750027;80;26551;-72
2021/08/10 06:02:55;;;;;;;5.35;1.77;;;;;;;23.79;74.99;99826.41;1753517;80;21503;-72
2021/08/10 06:05:22;;;;;;;3.75;1.60;;;;;;;24.25;73.98;99820.36;1749460;80;21073;-72
2021/08/10 06:07:49;;;;;;;4.80;1.57;;;;;;;24.66;73.66;99817.93;1718410;81;20954;-73
2021/08/10 06:10:15;;;;;;;3.75;1.77;;;;;;;25.06;73.36;99820.38;1693110;83;21028;-72
2021/08/10 06:12:42;;;;;;;7.15;1.72;;;;;;;25.56;73.02;99814.13;1766922;79;20985;-70
2021/08/10 06:15:10;;;;;;;5.47;1.70;;;;;;;26.02;72.54;99809.13;1771427;79;21543;-70
2021/08/10 06:17:39;;;;;;;4.00;1.15;;;;;;;26.42;72.14;99807.34;1777681;80;21574;-70
2021/08/10 06:20:08;;;;;;;6.55;1.82;;;;;;;26.75;71.56;99805.90;1727180;81;20983;-70
2021/08/10 06:22:35;;;;;;;8.18;1.87;;;;;;;26.99;70.12;99801.72;1780098;80;20969;-70
2021/08/10 06:25:02;;;;;;;3.00;1.50;;;;;;;26.81;69.58;99803.85;1745398;80;20975;-70
2021/08/10 06:27:29;;;;;;;5.30;1.90;;;;;;;26.90;69.94;99802.79;1762885;79;21574;-70
2021/08/10 06:29:56;;;;;;;5.60;1.52;;;;;;;27.09;69.47;99799.34;1769331;79;21469;-71
2021/08/10 06:32:25;;;;;;;7.83;1.20;;;;;;;27.37;69.23;99800.50;1779892;79;20967;-68
2021/08/10 06:34:52;;;;;;;2.83;1.62;;;;;;;27.59;68.58;99796.66;1762367;79;21543;-72
2021/08/10 06:37:19;;;;;;;4.80;1.50;;;;;;;27.79;68.04;99792.95;1765170;79;21029;-71
2021/08/10 06:39:45;;;;;;;3.90;1.40;;;;;;;27.99;67.23;99794.63;1774395;78;20989;-73
2021/08/10 06:42:13;;;;;;;20.68;1.80;;;;;;;28.28;66.91;99796.48;1763666;79;21820;-75
2021/08/10 06:44:39;;;;;;;8.90;1.80;;;;;;;28.33;66.51;99795.41;1764239;79;20981;-75
2021/08/10 06:47:06;;;;;;;28.07;3.37;;;;;;;28.53;65.88;99791.67;1778359;79;21534;-74
2021/08/10 06:49:33;;;;;;;11.10;1.87;;;;;;;28.52;64.81;99790.02;1784220;79;20958;-73
2021/08/10 06:52:00;;;;;;;9.48;1.42;;;;;;;28.76;64.79;99799.59;1774134;79;21017;-73
2021/08/10 06:54:27;;;;;;;6.92;1.82;;;;;;;28.80;63.72;99792.02;1774981;79;21218;-72
2021/08/10 06:56:54;;;;;;;6.97;1.40;;;;;;;28.89;63.49;99794.39;1723060;80;20944;-73
2021/08/10 06:59:20;;;;;;;8.33;1.52;;;;;;;28.87;62.64;99795.59;1772064;79;20918;-72
2021/08/10 07:01:48;;;;;;;27.85;2.50;;;;;;;28.81;62.28;99791.81;1771836;79;21599;-73
2021/08/10 07:04:15;;;;;;;11.03;2.40;;;;;;;28.90;61.97;99796.55;1756237;80;21020;-73
2021/08/10 07:06:41;;;;;;;19.35;2.00;;;;;;;29.11;61.59;99793.94;1775798;79;21103;-72
2021/08/10 07:09:08;;;;;;;17.32;1.92;;;;;;;28.99;60.59;99789.55;1768011;79;21575;-72
2021/08/10 07:11:35;;;;;;;2.22;1.20;;;;;;;28.76;59.69;99797.77;1775525;79;21049;-72
2021/08/10 07:14:02;;;;;;;11.00;1.67;;;;;;;28.63;59.65;99794.91;1758816;80;21061;-72
2021/08/10 07:16:30;;;;;;;12.80;1.90;;;;;;;28.65;58.96;99794.22;1779380;79;21036;-72
2021/08/10 07:18:57;;;;;;;12.07;1.60;;;;;;;28.68;58.92;99791.64;1756833;80;21140;-71
2021/08/10 07:23:04;;;;;;;15.48;1.60;;;;;;;28.69;57.79;99787.44;1842003;76;23389;-71
2021/08/10 07:25:31;;;;;;;12.98;1.57;;;;;;;28.70;57.66;99794.47;1814807;78;20970;-71
2021/08/10 07:27:57;;;;;;;31.90;3.22;;;;;;;28.50;57.25;99790.20;1818404;78;22232;-71
2021/08/10 07:30:24;;;;;;;30.27;3.65;;;;;;;28.39;57.23;99784.44;1816658;78;20930;-71
2021/08/10 07:32:50;;;;;;;16.10;2.40;;;;;;;28.27;56.63;99790.28;1814316;78;20953;-72
2021/08/10 07:35:17;;;;;;;13.10;1.42;;;;;;;28.05;56.27;99785.83;1819187;78;21001;-72
2021/08/10 07:37:44;;;;;;;;;;;;;;;27.78;55.88;99788.58;1818041;78;21486;-72
2021/08/10 07:40:15;;;;;;;2.47;1.12;;;;;;;27.59;55.55;99784.08;1815747;78;21178;-71
2021/08/10 07:42:42;;;;;;;7.45;1.45;;;;;;;27.49;55.35;99791.52;1811701;78;21064;-71
2021/08/10 07:45:11;;;;;;;5.12;1.10;;;;;;;27.26;54.67;99786.18;1815958;78;21004;-71
2021/08/10 07:47:41;;;;;;;12.90;1.60;;;;;;;26.89;54.49;99777.02;1816372;78;21532;-71
2021/08/10 07:50:14;;;;;;;10.32;1.32;;;;;;;26.68;54.16;99782.15;1799566;78;21604;-71
2021/08/10 07:52:41;;;;;;;5.12;1.20;;;;;;;26.34;53.88;99788.63;1822088;78;21630;-72
2021/08/10 07:55:09;;;;;;;;;;;;;;;26.12;53.77;99782.99;1819946;78;20998;-71
2021/08/10 07:57:39;;;;;;;4.87;1.40;;;;;;;25.94;53.47;99790.41;1825299;78;20226;-72
2021/08/10 08:00:07;;;;;;;9.70;1.57;;;;;;;25.90;53.62;99787.73;1793255;78;20965;-73
2021/08/10 08:02:34;;;;;;;16.17;1.40;;;;;;;25.94;53.49;99795.77;1819868;78;21052;-74
2021/08/10 08:05:01;;;;;;;;;;;;;;;26.08;53.38;99791.05;1818431;78;21022;-73
2021/08/10 08:07:30;;;;;;;15.70;2.15;;;;;;;26.11;52.83;99796.05;1784910;78;20298;-73
2021/08/10 08:09:59;;;;;;;13.28;1.90;;;;;;;26.18;52.87;99798.04;1820595;78;21035;-71
2021/08/10 08:12:27;;;;;;;7.15;1.00;;;;;;;26.26;52.43;99791.33;1819247;78;21015;-69
2021/08/10 08:14:54;;;;;;;2.22;1.10;;;;;;;26.18;52.21;99790.01;1796725;78;21140;-70
2021/08/10 08:17:21;;;;;;;85.75;8.00;;;;;;;25.89;51.73;99794.09;1788631;78;22432;-71
2021/08/10 08:19:48;;;;;;;16.87;3.15;;;;;;;25.57;51.78;99789.09;1817686;78;20969;-70
2021/08/10 08:22:16;;;;;;;57.53;4.08;;;;;;;25.35;51.59;99786.58;1808305;78;20876;-72
2021/08/10 08:24:43;;;;;;;113.05;11.97;;;;;;;25.22;51.48;99787.05;1807926;78;21067;-71
2021/08/10 08:27:11;;;;;;;27.75;2.83;;;;;;;24.95;51.45;99784.12;1793203;78;21034;-73
2021/08/10 08:29:38;;;;;;;58.73;5.35;;;;;;;24.79;51.14;99792.95;1803978;78;21012;-72
2021/08/10 08:32:09;;;;;;;;;;;;;;;24.69;51.32;99789.57;1804132;78;20985;-71
2021/08/10 08:34:36;;;;;;;52.27;4.33;;;;;;;24.61;50.84;99796.72;1802765;78;20115;-72
2021/08/10 08:37:04;;;;;;;38.58;3.85;;;;;;;24.43;50.77;99794.13;1796191;78;21043;-72
2021/08/10 08:39:33;;;;;;;15.43;2.85;;;;;;;24.24;51.42;99801.36;1801071;78;21029;-71
2021/08/10 08:42:02;;;;;;;22.25;6.83;;;;;;;24.15;50.83;99801.48;1801343;78;21312;-72
2021/08/10 08:44:36;;;;;;;29.27;2.87;;;;;;;24.02;50.62;99804.56;1807804;78;20957;-72
2021/08/10 08:47:09;;;;;;;59.20;8.43;;;;;;;24.01;50.80;99794.91;1800455;77;21005;-72
2021/08/10 08:49:38;;;;;;;25.82;3.30;;;;;;;24.18;51.14;99799.33;1804321;78;20911;-72
2021/08/10 08:52:13;;;;;;;133.32;11.25;;;;;;;24.58;51.27;99795.20;1803063;78;21024;-71
2021/08/10 08:54:41;;;;;;;43.23;4.80;;;;;;;25.10;51.22;99795.03;1799873;78;21344;-72
2021/08/10 08:57:12;;;;;;;143.28;12.80;;;;;;;25.71;51.01;99796.08;1803954;78;20956;-73
2021/08/10 08:59:45;;;;;;;80.85;9.15;;;;;;;26.12;50.88;99793.70;1803271;78;22001;-73
2021/08/10 09:02:19;;;;;;;78.55;10.45;;;;;;;26.33;50.36;99790.98;1797756;78;21551;-73
2021/08/10 09:04:47;;;;;;;60.03;10.82;;;;;;;26.27;50.11;99792.98;1797224;78;20974;-74
2021/08/10 09:07:14;;;;;;;170.70;17.85;;;;;;;26.26;50.19;99792.66;1800815;78;20984;-74
2021/08/10 09:09:45;;;;;;;93.60;7.92;;;;;;;26.32;49.97;99792.80;1802371;78;20973;-74
2021/08/10 09:12:14;;;;;;;53.35;4.62;;;;;;;26.41;49.70;99793.63;1783349;78;22132;-73
2021/08/10 09:14:51;;;;;;;12.80;2.47;;;;;;;26.35;49.59;99792.95;1799698;78;21025;-74
2021/08/10 09:17:20;;;;;;;;;;;;;;;26.22;49.31;99795.37;1803978;78;21579;-73
2021/08/10 09:19:54;;;;;;;39.92;3.77;;;;;;;26.00;48.78;99795.08;1801184;78;21063;-74
2021/08/10 09:22:34;;;;;;;73.95;5.87;;;;;;;25.80;49.03;99796.42;1798069;78;21503;-72
2021/08/10 09:25:06;;;;;;;15.38;2.22;;;;;;;25.76;48.80;99803.09;1801297;78;21634;-69
2021/08/10 09:27:39;;;;;;;76.75;7.15;;;;;;;25.54;48.54;99805.44;1769725;78;21127;-77
2021/08/10 09:30:26;;;;;;;71.97;10.75;;;;;;;25.57;48.63;99803.80;1796693;78;21020;-74
2021/08/10 09:33:00;;;;;;;89.20;9.15;;;;;;;25.59;48.30;99804.44;1687983;83;21207;-72
2021/08/10 09:35:38;;;;;;;95.77;8.95;;;;;;;25.60;48.47;99799.44;1660052;84;21479;-75
2021/08/10 09:38:20;;;;;;;16.77;3.20;;;;;;;25.53;48.19;99793.08;1639111;86;21051;-73
2021/08/10 09:40:52;;;;;;;152.85;16.82;;;;;;;25.85;48.58;99800.77;1640788;86;21080;-75
2021/08/10 09:43:35;;;;;;;69.62;10.15;;;;;;;26.31;48.46;99791.65;1649387;85;21004;-75
2021/08/10 09:46:22;;;;;;;39.73;8.13;;;;;;;26.51;48.11;99784.90;1650829;85;21069;-74
2021/08/10 09:48:56;;;;;;;112.40;14.43;;;;;;;26.78;47.71;99786.80;1635295;85;21061;-75
2021/08/10 09:51:27;;;;;;;28.15;3.40;;;;;;;26.60;47.46;99790.22;1662958;85;21554;-74
2021/08/10 09:54:04;;;;;;;35.08;3.37;;;;;;;26.40;47.27;99786.59;1651630;85;21550;-75
2021/08/10 09:56:45;;;;;;;;;;;;;;;26.33;47.40;99786.45;1654766;84;21085;-69
2021/08/10 09:59:11;;;;;;;33.42;3.92;;;;;;;26.41;46.96;99781.59;1657134;83;21226;-70
2021/08/10 10:01:44;;;;;;;41.98;3.87;;;;;;;26.32;47.08;99779.92;1655958;83;21041;-70
2021/08/10 10:04:30;;;;;;;57.65;5.95;;;;;;;26.21;47.05;99774.95;1660241;83;21036;-71
2021/08/10 10:07:01;;;;;;;22.87;2.52;;;;;;;26.35;47.17;99770.20;1662461;84;20995;-71
2021/08/10 10:09:28;;;;;;;77.62;7.50;;;;;;;26.42;46.88;99772.53;1656913;84;21685;-70
2021/08/10 10:11:56;;;;;;;32.45;4.53;;;;;;;26.53;46.40;99772.18;1654355;85;21064;-71
2021/08/10 10:14:26;;;;;;;35.30;5.70;;;;;;;26.50;46.46;99772.53;1653677;85;21043;-70
2021/08/10 10:16:53;;;;;;;11.90;2.77;;;;;;;26.36;46.49;99774.57;1652260;86;21570;-71
2021/08/10 10:19:22;;;;;;;43.85;7.03;;;;;;;26.45;46.52;99772.19;1643235;86;21646;-70
2021/08/10 10:21:53;;;;;;;40.00;4.65;;;;;;;26.36;46.10;99770.55;1662145;85;20993;-71
2021/08/10 10:24:22;;;;;;;100.67;11.18;;;;;;;26.23;46.13;99775.61;1623673;86;21170;-71
2021/08/10 10:27:04;;;;;;;22.22;6.03;;;;;;;26.22;46.08;99773.95;1648629;86;21057;-70
2021/08/10 10:29:34;;;;;;;150.60;20.50;;;;;;;26.15;46.01;99766.27;1666485;85;21141;-71
2021/08/10 10:32:02;;;;;;;19.80;3.98;;;;;;;26.20;45.89;99758.56;1655038;84;21032;-70
2021/08/10 10:34:30;;;;;;;100.27;7.37;;;;;;;26.17;45.81;99760.25;1641857;85;21000;-70
2021/08/10 10:37:01;;;;;;;6.95;1.70;;;;;;;26.27;45.96;99758.19;1671583;84;20993;-71
2021/08/10 10:39:35;;;;;;;28.90;3.45;;;;;;;26.39;45.75;99756.83;1673600;84;21551;-71
2021/08/10 10:42:06;;;;;;;141.18;13.50;;;;;;;26.36;45.32;99750.48;1685333;84;21046;-70
2021/08/10 10:44:52;;;;;;;198.90;28.67;;;;;;;26.24;45.52;99747.83;1668974;84;21520;-70
2021/08/10 10:47:33;;;;;;;29.60;4.47;;;;;;;26.38;45.14;99744.42;1689299;84;21038;-70
2021/08/10 10:50:02;;;;;;;;;;;;;;;26.51;45.43;99743.40;1689573;83;21865;-70
2021/08/10 10:52:33;;;;;;;8.68;1.70;;;;;;;26.59;44.92;99736.34;1692075;84;20174;-70
2021/08/10 10:55:02;;;;;;;4.85;1.37;;;;;;;26.77;45.30;99730.20;1688425;84;21033;-70
2021/08/10 10:58:56;;;;;;;13.87;2.00;;;;;;;27.09;44.63;99735.02;1804650;77;28447;-70
2021/08/10 11:01:31;;;;;;;9.38;2.27;;;;;;;26.93;44.81;99732.77;1817659;77;20949;-70
2021/08/10 11:04:08;;;;;;;21.73;1.75;;;;;;;26.91;44.58;99724.08;1821739;77;21510;-70
2021/08/10 11:06:49;;;;;;;63.23;5.10;;;;;;;26.75;44.45;99724.20;1819305;78;20992;-70
2021/08/10 11:09:42;;;;;;;25.88;2.40;;;;;;;26.61;44.37;99724.94;1817602;77;20963;-70
2021/08/10 11:12:33;;;;;;;116.08;8.73;;;;;;;26.53;44.29;99721.31;1818155;77;20952;-70
2021/08/10 11:14:59;;;;;;;23.18;2.87;;;;;;;26.50;44.38;99716.31;1812580;77;21568;-69
2021/08/10 11:17:26;;;;;;;;;;;;;;;26.43;43.90;99723.33;1819046;77;23548;-70
2021/08/10 11:19:53;;;;;;;;;;;;;;;26.33;43.90;99724.89;1822705;77;20109;-70
2021/08/10 11:22:23;;;;;;;54.83;4.00;;;;;;;26.17;43.71;99717.44;1816475;78;20160;-70
2021/08/10 11:25:02;;;;;;;10.95;2.33;;;;;;;25.97;43.72;99721.85;1813537;78;21542;-69
2021/08/10 11:27:43;;;;;;;30.52;3.30;;;;;;;25.68;43.60;99713.88;1817128;78;21335;-71
2021/08/10 11:30:29;;;;;;;44.48;5.65;;;;;;;25.55;43.94;99713.56;1817242;77;22440;-69
2021/08/10 11:32:57;;;;;;;5.20;1.55;;;;;;;25.68;44.22;99708.53;1816756;78;20993;-71
2021/08/10 11:35:41;;;;;;;30.48;4.40;;;;;;;25.73;43.14;99697.30;1808680;78;21634;-69
2021/08/10 11:38:20;;;;;;;31.90;3.77;;;;;;;25.59;43.59;99696.16;1812136;78;20938;-70
2021/08/10 11:40:59;;;;;;;22.10;3.62;;;;;;;25.88;43.98;99696.14;1816597;77;20960;-70
2021/08/10 11:43:46;;;;;;;5.22;1.70;;;;;;;26.19;43.85;99699.38;1816491;78;21165;-71
2021/08/10 11:46:27;;;;;;;97.33;12.40;;;;;;;26.59;43.84;99688.15;1817555;78;21048;-71
2021/08/10 11:49:08;;;;;;;57.40;7.35;;;;;;;26.79;43.50;99692.02;1812779;78;21063;-71